createdAt,value
2022-12-01T00:01:46.897Z,100585.03
2022-12-01T00:06:48.816Z,100568.25
2022-12-01T00:11:50.625Z,100578.56
2022-12-01T00:16:52.373Z,100578.00
2022-12-01T00:21:54.223Z,100587.19
2022-12-01T00:26:55.852Z,100574.19
2022-12-01T00:31:57.657Z,100575.03
2022-12-01T00:37:00.390Z,100577.44
2022-12-01T00:42:02.118Z,100569.84
2022-12-01T00:47:03.774Z,100579.03
2022-12-01T00:52:05.964Z,100575.34
2022-12-01T00:57:07.911Z,100584.28
2022-12-01T01:02:09.628Z,100579.22
2022-12-01T01:07:11.362Z,100582.66
2022-12-01T01:12:13.135Z,100573.81
2022-12-01T01:17:14.725Z,100563.75
2022-12-01T01:22:16.517Z,100560.78
2022-12-01T01:27:18.142Z,100561.38
2022-12-01T01:32:19.716Z,100568.47
2022-12-01T01:37:21.351Z,100590.22
2022-12-01T01:42:23.053Z,100586.69
2022-12-01T01:47:34.947Z,100587.28
2022-12-01T01:52:45.203Z,100589.03
2022-12-01T01:57:47.171Z,100589.50
2022-12-01T02:02:50.430Z,100585.94
2022-12-01T02:07:55.423Z,100588.94
2022-12-01T02:13:21.987Z,100577.63
2022-12-01T02:18:42.156Z,100590.69
2022-12-01T02:24:44.177Z,100592.59
2022-12-01T02:30:09.187Z,100606.72
2022-12-01T02:35:14.477Z,100601.50
2022-12-01T02:40:26.802Z,100600.66
2022-12-01T02:45:46.297Z,100595.34
2022-12-01T02:50:48.900Z,100593.13
2022-12-01T02:55:53.888Z,100581.81
2022-12-01T03:01:32.761Z,100571.50
2022-12-01T03:06:53.526Z,100575.84
2022-12-01T03:12:24.098Z,100573.63
2022-12-01T03:17:50.404Z,100568.50
2022-12-01T03:22:59.306Z,100577.81
2022-12-01T03:28:21.626Z,100566.63
2022-12-01T03:33:31.450Z,100575.31
2022-12-01T03:38:36.313Z,100574.31
2022-12-01T03:43:44.171Z,100574.13
2022-12-01T03:48:46.588Z,100573.97
2022-12-01T03:54:00.388Z,100579.53
2022-12-01T03:59:05.076Z,100575.91
2022-12-01T04:04:09.045Z,100567.94
2022-12-01T04:09:10.661Z,100564.75
2022-12-01T04:14:12.332Z,100570.00
2022-12-01T04:19:14.189Z,100562.44
2022-12-01T04:24:16.138Z,100582.66
2022-12-01T04:29:17.755Z,100574.59
2022-12-01T04:34:19.409Z,100572.56
2022-12-01T04:39:21.303Z,100571.69
2022-12-01T04:44:22.961Z,100575.47
2022-12-01T04:49:24.860Z,100581.13
2022-12-01T04:54:26.891Z,100579.03
2022-12-01T04:59:28.703Z,100575.91
2022-12-01T05:04:31.519Z,100586.13
2022-12-01T05:09:33.420Z,100583.81
2022-12-01T05:14:35.137Z,100591.94
2022-12-01T05:19:55.212Z,100597.16
2022-12-01T05:24:56.815Z,100596.41
2022-12-01T05:29:58.397Z,100600.41
2022-12-01T05:35:00.164Z,100617.16
2022-12-01T05:40:02.156Z,100613.50
2022-12-01T05:45:04.016Z,100616.41
2022-12-01T05:50:06.340Z,100622.03
2022-12-01T05:55:08.399Z,100633.94
2022-12-01T06:00:10.618Z,100628.84
2022-12-01T06:05:14.878Z,100632.44
2022-12-01T06:10:16.753Z,100620.91
2022-12-01T06:15:18.497Z,100623.22
2022-12-01T06:20:20.161Z,100623.03
2022-12-01T06:25:21.817Z,100618.56
2022-12-01T06:30:23.504Z,100636.38
2022-12-01T06:35:25.130Z,100626.25
2022-12-01T06:40:27.202Z,100636.72
2022-12-01T06:45:30.235Z,100632.28
2022-12-01T06:50:31.993Z,100629.91
2022-12-01T06:55:34.110Z,100625.44
2022-12-01T07:00:35.820Z,100625.59
2022-12-01T07:05:37.920Z,100637.69
2022-12-01T07:10:39.715Z,100632.25
2022-12-01T07:15:41.279Z,100631.09
2022-12-01T07:20:42.880Z,100658.88
2022-12-01T07:25:44.479Z,100664.78
2022-12-01T07:30:46.182Z,100666.56
2022-12-01T07:35:48.142Z,100669.66
2022-12-01T07:40:50.070Z,100679.94
2022-12-01T07:45:51.803Z,100685.22
2022-12-01T07:50:55.862Z,100688.13
2022-12-01T07:55:58.727Z,100696.97
2022-12-01T08:01:07.036Z,100693.00
2022-12-01T08:06:09.440Z,100689.81
2022-12-01T08:11:16.575Z,100683.66
2022-12-01T08:16:20.906Z,100689.44
2022-12-01T08:21:24.148Z,100697.88
2022-12-01T08:26:26.403Z,100698.97
2022-12-01T08:31:33.174Z,100699.88
2022-12-01T08:36:35.340Z,100699.47
2022-12-01T08:41:36.941Z,100702.41
2022-12-01T08:46:38.837Z,100712.47
2022-12-01T08:51:40.522Z,100715.16
2022-12-01T08:56:45.128Z,100714.53
2022-12-01T09:01:52.557Z,100708.81
2022-12-01T09:06:56.193Z,100705.59
2022-12-01T09:11:57.836Z,100712.84
2022-12-01T09:16:59.621Z,100702.88
2022-12-01T09:22:01.748Z,100692.63
2022-12-01T09:27:04.160Z,100678.47
2022-12-01T09:32:05.777Z,100679.31
2022-12-01T09:37:07.666Z,100666.22
2022-12-01T09:42:15.425Z,100664.56
2022-12-01T09:47:27.213Z,100664.59
2022-12-01T09:52:38.428Z,100660.56
2022-12-01T09:57:41.277Z,100652.41
2022-12-01T10:02:59.487Z,100642.84
2022-12-01T10:08:05.789Z,100638.34
2022-12-01T10:13:23.740Z,100650.94
2022-12-01T10:18:40.567Z,100647.06
2022-12-01T10:23:50.116Z,100642.22
2022-12-01T10:29:16.340Z,100635.06
2022-12-01T10:34:33.510Z,100638.38
2022-12-01T10:39:38.789Z,100631.72
2022-12-01T10:44:40.830Z,100623.03
2022-12-01T10:49:42.615Z,100630.16
2022-12-01T10:54:44.222Z,100629.34
2022-12-01T10:59:53.289Z,100619.13
2022-12-01T11:04:58.680Z,100628.56
2022-12-01T11:10:06.111Z,100612.47
2022-12-01T11:15:08.657Z,100610.78
2022-12-01T11:20:32.718Z,100596.69
2022-12-01T11:25:34.488Z,100607.28
2022-12-01T11:30:36.151Z,100599.81
2022-12-01T11:35:38.352Z,100601.88
2022-12-01T11:40:52.108Z,100596.41
2022-12-01T11:45:55.769Z,100595.97
2022-12-01T11:51:07.736Z,100590.53
2022-12-01T11:56:27.985Z,100586.09
2022-12-01T12:02:02.242Z,100590.47
2022-12-01T12:07:31.745Z,100588.03
2022-12-01T12:12:42.305Z,100592.63
2022-12-01T12:17:51.318Z,100590.38
2022-12-01T12:23:19.711Z,100587.88
2022-12-01T12:28:40.133Z,100575.13
2022-12-01T12:33:44.745Z,100568.63
2022-12-01T12:39:02.935Z,100559.50
2022-12-01T12:44:38.497Z,100561.22
2022-12-01T12:49:50.783Z,100550.44
2022-12-01T12:54:57.878Z,100550.44
2022-12-01T13:00:05.220Z,100548.47
2022-12-01T13:05:19.285Z,100549.78
2022-12-01T13:10:43.270Z,100555.81
2022-12-01T13:15:47.213Z,100546.00
2022-12-01T13:20:52.114Z,100550.19
2022-12-01T13:25:57.151Z,100543.00
2022-12-01T13:31:06.332Z,100534.66
2022-12-01T13:41:40.474Z,100538.84
2022-12-01T13:46:42.281Z,100538.44
2022-12-01T13:52:22.087Z,100540.19
2022-12-01T13:57:27.062Z,100542.25
2022-12-01T14:02:34.755Z,100537.28
2022-12-01T14:07:38.209Z,100540.97
2022-12-01T14:12:42.145Z,100532.25
2022-12-01T14:17:45.246Z,100530.91
2022-12-01T14:23:01.938Z,100529.94
2022-12-01T14:28:04.523Z,100531.41
2022-12-01T14:33:53.773Z,100531.47
2022-12-01T14:38:58.931Z,100536.56
2022-12-01T14:44:15.313Z,100528.91
2022-12-01T14:49:31.450Z,100535.50
2022-12-01T14:54:55.856Z,100529.66
2022-12-01T15:00:14.167Z,100527.78
2022-12-01T15:05:21.943Z,100530.22
2022-12-01T15:10:35.011Z,100526.88
2022-12-01T15:15:37.679Z,100528.19
2022-12-01T15:20:42.422Z,100541.22
2022-12-01T15:25:48.865Z,100537.81
2022-12-01T15:30:55.159Z,100535.56
2022-12-01T15:35:59.195Z,100546.78
2022-12-01T15:46:32.959Z,100547.75
2022-12-01T15:51:35.112Z,100535.72
2022-12-01T15:56:40.777Z,100546.66
2022-12-01T16:01:44.945Z,100554.34
2022-12-01T16:06:58.110Z,100549.53
2022-12-01T16:12:09.598Z,100550.50
2022-12-01T16:17:11.378Z,100550.09
2022-12-01T16:22:22.333Z,100563.88
2022-12-01T16:27:25.067Z,100574.25
2022-12-01T16:32:29.683Z,100578.22
2022-12-01T16:37:31.749Z,100573.53
2022-12-01T16:42:33.699Z,100568.47
2022-12-01T16:47:35.324Z,100566.50
2022-12-01T16:52:44.325Z,100562.63
2022-12-01T16:57:46.547Z,100568.38
2022-12-01T17:02:48.186Z,100556.44
2022-12-01T17:07:49.910Z,100555.03
2022-12-01T17:12:51.983Z,100552.25
2022-12-01T17:17:53.570Z,100552.09
2022-12-01T17:22:55.196Z,100561.88
2022-12-01T17:27:57.025Z,100566.53
2022-12-01T17:32:58.657Z,100571.34
2022-12-01T17:38:00.510Z,100578.78
2022-12-01T17:43:02.168Z,100578.81
2022-12-01T17:48:04.407Z,100584.31
2022-12-01T17:53:05.972Z,100576.53
2022-12-01T17:58:07.603Z,100584.34
2022-12-01T18:03:09.565Z,100583.53
2022-12-01T18:08:11.500Z,100584.31
2022-12-01T18:13:13.150Z,100579.44
2022-12-01T18:18:14.851Z,100582.53
2022-12-01T18:23:16.492Z,100586.28
2022-12-01T18:28:18.093Z,100585.84
2022-12-01T18:33:20.975Z,100585.59
2022-12-01T18:38:24.905Z,100579.00
2022-12-01T18:43:31.138Z,100578.00
2022-12-01T18:48:34.926Z,100574.50
2022-12-01T18:53:36.654Z,100579.53
2022-12-01T18:58:39.419Z,100588.00
2022-12-01T19:03:41.040Z,100590.06
2022-12-01T19:08:44.632Z,100581.31
2022-12-01T19:13:47.381Z,100581.16
2022-12-01T19:18:49.347Z,100580.63
2022-12-01T19:23:52.650Z,100575.19
2022-12-01T19:28:54.700Z,100589.00
2022-12-01T19:33:56.555Z,100586.53
2022-12-01T19:39:00.576Z,100593.97
2022-12-01T19:44:02.616Z,100592.16
2022-12-01T19:49:06.603Z,100600.53
2022-12-01T19:54:14.788Z,100597.38
2022-12-01T19:59:16.676Z,100601.25
2022-12-01T20:04:18.600Z,100598.75
2022-12-01T20:09:20.188Z,100602.69
2022-12-01T20:14:22.604Z,100605.06
2022-12-01T20:19:24.218Z,100594.72
2022-12-01T20:24:26.208Z,100596.88
2022-12-01T20:29:29.601Z,100598.03
2022-12-01T20:34:35.760Z,100587.09
2022-12-01T20:39:38.676Z,100592.91
2022-12-01T20:44:40.615Z,100606.25
2022-12-01T20:49:42.299Z,100597.88
2022-12-01T20:54:44.774Z,100595.22
2022-12-01T20:59:46.795Z,100593.06
2022-12-01T21:04:48.807Z,100601.63
2022-12-01T21:09:50.584Z,100604.53
2022-12-01T21:15:02.523Z,100607.44
2022-12-01T21:20:27.157Z,100602.84
2022-12-01T21:25:28.791Z,100596.47
2022-12-01T21:30:30.688Z,100594.59
2022-12-01T21:35:32.511Z,100597.53
2022-12-01T21:40:34.339Z,100600.94
2022-12-01T21:45:36.294Z,100609.13
2022-12-01T21:50:37.928Z,100602.28
2022-12-01T21:55:41.669Z,100606.66
2022-12-01T22:00:45.521Z,100603.84
2022-12-01T22:06:13.684Z,100595.81
2022-12-01T22:11:18.758Z,100599.38
2022-12-01T22:16:27.758Z,100604.78
2022-12-01T22:21:39.928Z,100607.06
2022-12-01T22:26:47.714Z,100606.91
2022-12-01T22:31:49.412Z,100596.19
2022-12-01T22:36:51.534Z,100589.34
2022-12-01T22:42:01.283Z,100600.22
2022-12-01T22:47:03.826Z,100590.13
2022-12-01T22:52:19.688Z,100589.78
2022-12-01T22:57:35.053Z,100590.25
2022-12-01T23:02:36.787Z,100588.38
2022-12-01T23:07:41.756Z,100590.78
2022-12-01T23:12:45.518Z,100585.03
2022-12-01T23:17:47.850Z,100570.59
2022-12-01T23:22:52.396Z,100564.41
2022-12-01T23:27:58.292Z,100558.53
2022-12-01T23:33:17.791Z,100557.56
2022-12-01T23:38:26.479Z,100561.84
2022-12-01T23:43:33.059Z,100564.88
2022-12-01T23:48:40.951Z,100559.19
2022-12-01T23:53:43.159Z,100546.13
2022-12-01T23:58:45.401Z,100551.84
